Time;durP1;ratioP1;P1;durP2;ratioP2;P2;SDS_P1;SDS_P2;PMS_P1;PMS_P2;Temp;Humidity;BMP_temperature;BMP_pressure;BME280_temperature;BME280_humidity;BME280_pressure;Samples;Min_cycle;Max_cycle;Signal;HPM_P1;HPM_P2
2022/02/22 00:01:05;;;;;;;36.97;7.87;;;5.20;86.50;;;;;;5038149;28;20172;-92
2022/02/22 00:03:32;;;;;;;38.27;7.27;;;5.30;86.60;;;;;;5038221;28;20700;-92
2022/02/22 00:05:58;;;;;;;51.03;7.90;;;5.20;86.60;;;;;;5039635;28;20233;-92
2022/02/22 00:08:24;;;;;;;45.37;7.93;;;5.30;86.40;;;;;;5040996;28;20676;-93
2022/02/22 00:10:49;;;;;;;48.20;8.10;;;5.20;86.50;;;;;;5041454;28;20191;-92
2022/02/22 00:13:16;;;;;;;44.73;8.00;;;5.30;85.70;;;;;;5040963;28;20182;-93
2022/02/22 00:15:41;;;;;;;35.23;8.03;;;5.20;85.90;;;;;;5039576;28;20209;-93
2022/02/22 00:18:07;;;;;;;41.57;8.60;;;5.20;86.10;;;;;;5038812;28;20679;-93
2022/02/22 00:20:33;;;;;;;42.00;7.43;;;5.20;86.10;;;;;;5038464;28;20164;-92
2022/02/22 00:22:58;;;;;;;43.43;7.60;;;5.10;86.10;;;;;;5037701;28;20575;-92
2022/02/22 00:25:24;;;;;;;32.50;7.80;;;5.10;85.70;;;;;;5039041;28;20182;-93
2022/02/22 00:27:50;;;;;;;54.10;9.03;;;5.00;85.90;;;;;;5039829;28;20224;-94
2022/02/22 00:30:17;;;;;;;49.73;7.57;;;5.00;86.20;;;;;;5039720;28;20207;-93
2022/02/22 00:32:43;;;;;;;54.23;8.80;;;5.00;86.20;;;;;;5039832;28;20613;-93
2022/02/22 00:35:10;;;;;;;48.60;10.20;;;4.90;86.50;;;;;;5038877;28;20206;-93
2022/02/22 00:37:37;;;;;;;57.67;8.87;;;4.90;86.70;;;;;;5039326;28;20256;-92
2022/02/22 00:40:04;;;;;;;39.60;8.27;;;5.00;86.90;;;;;;5038360;28;20174;-92
2022/02/22 00:42:30;;;;;;;37.03;8.57;;;5.00;87.10;;;;;;5037373;28;20178;-92
2022/02/22 00:44:55;;;;;;;33.87;6.70;;;5.00;87.10;;;;;;5055041;28;20260;-92
2022/02/22 00:47:21;;;;;;;47.17;7.90;;;5.00;86.00;;;;;;5037097;28;20237;-92
2022/02/22 00:49:46;;;;;;;39.10;7.57;;;5.10;85.50;;;;;;5037464;28;20669;-92
2022/02/22 00:52:12;;;;;;;46.27;7.37;;;5.00;84.80;;;;;;5037077;28;20188;-92
2022/02/22 00:54:38;;;;;;;44.13;8.10;;;5.00;84.30;;;;;;5037117;28;20208;-92
2022/02/22 00:57:04;;;;;;;26.00;7.07;;;5.10;83.70;;;;;;5038474;28;20191;-93
2022/02/22 00:59:29;;;;;;;37.30;7.40;;;5.00;83.90;;;;;;5036963;28;20231;-92
2022/02/22 01:01:55;;;;;;;32.07;8.23;;;5.00;83.90;;;;;;5036784;28;20179;-93
2022/02/22 01:04:20;;;;;;;44.40;8.63;;;4.90;83.70;;;;;;5037477;28;20210;-92
2022/02/22 01:06:46;;;;;;;42.20;7.23;;;4.90;83.90;;;;;;5038612;28;20182;-93
2022/02/22 01:09:13;;;;;;;39.13;7.87;;;4.90;84.10;;;;;;5037062;28;20233;-91
2022/02/22 01:11:40;;;;;;;43.80;6.73;;;4.90;84.20;;;;;;5036401;28;20565;-92
2022/02/22 01:14:06;;;;;;;41.70;7.07;;;5.00;83.50;;;;;;5036221;28;20177;-92
2022/02/22 01:16:32;;;;;;;39.37;8.13;;;5.00;84.40;;;;;;5037095;28;20210;-92
2022/02/22 01:18:57;;;;;;;32.50;7.70;;;5.00;85.00;;;;;;5036500;28;20197;-92
2022/02/22 01:21:23;;;;;;;34.87;7.23;;;4.90;85.60;;;;;;5036973;28;20186;-92
2022/02/22 01:23:49;;;;;;;38.07;7.23;;;5.00;85.30;;;;;;5036803;28;20182;-92
2022/02/22 01:26:14;;;;;;;38.90;7.13;;;5.00;85.50;;;;;;5037372;28;20181;-92
2022/02/22 01:28:40;;;;;;;33.43;6.20;;;5.00;85.20;;;;;;5036458;28;20206;-92
2022/02/22 01:31:06;;;;;;;37.33;7.60;;;4.90;85.10;;;;;;5036636;28;20184;-93
2022/02/22 01:33:31;;;;;;;36.17;7.90;;;5.00;84.50;;;;;;5037456;28;20189;-93
2022/02/22 01:35:57;;;;;;;44.50;7.50;;;5.00;84.20;;;;;;5036199;28;20690;-92
2022/02/22 01:38:22;;;;;;;24.20;4.87;;;5.10;83.90;;;;;;5036441;28;20192;-92
2022/02/22 01:40:51;;;;;;;28.93;6.73;;;5.10;83.70;;;;;;5036814;28;20242;-92
2022/02/22 01:43:17;;;;;;;29.77;6.93;;;5.20;83.40;;;;;;5054442;28;20170;-92
2022/02/22 01:45:42;;;;;;;27.97;6.13;;;5.10;83.90;;;;;;5036053;28;20181;-93
2022/02/22 01:48:08;;;;;;;38.93;8.40;;;5.00;84.20;;;;;;5036103;28;20738;-93
2022/02/22 01:50:33;;;;;;;36.93;6.90;;;5.00;84.60;;;;;;5036389;28;20185;-93
2022/02/22 01:53:01;;;;;;;51.23;9.47;;;5.00;84.20;;;;;;5036441;28;20186;-92
2022/02/22 01:55:27;;;;;;;41.97;6.93;;;4.90;84.90;;;;;;5036219;28;20259;-92
2022/02/22 01:57:53;;;;;;;33.80;7.10;;;5.00;84.90;;;;;;5036082;28;20607;-92
2022/02/22 02:00:18;;;;;;;32.30;6.87;;;5.00;84.70;;;;;;5054324;28;20181;-92
2022/02/22 02:02:44;;;;;;;38.77;6.57;;;5.00;84.30;;;;;;5035916;28;20178;-93
2022/02/22 02:05:10;;;;;;;21.50;5.83;;;5.00;84.00;;;;;;5036256;28;20213;-92
2022/02/22 02:07:35;;;;;;;53.57;10.63;;;5.00;83.80;;;;;;5037049;28;20292;-93
2022/02/22 02:10:01;;;;;;;45.77;7.67;;;5.00;83.90;;;;;;5036170;28;20185;-93
2022/02/22 02:12:27;;;;;;;26.23;5.80;;;5.00;83.60;;;;;;5053903;28;20219;-92
2022/02/22 02:14:52;;;;;;;48.33;9.47;;;5.00;83.30;;;;;;5053886;28;20230;-92
2022/02/22 02:17:18;;;;;;;39.57;7.30;;;5.00;83.20;;;;;;5035942;28;20190;-93
2022/02/22 02:19:43;;;;;;;27.13;6.97;;;5.00;83.50;;;;;;5035629;28;20276;-92
2022/02/22 02:22:09;;;;;;;29.60;6.30;;;5.10;83.40;;;;;;5036099;28;20185;-92
2022/02/22 02:24:35;;;;;;;21.90;5.80;;;5.00;83.10;;;;;;5036557;28;20185;-93
2022/02/22 02:27:01;;;;;;;42.93;8.23;;;5.00;82.70;;;;;;5036621;28;20185;-93
2022/02/22 02:29:28;;;;;;;43.37;7.87;;;5.00;82.90;;;;;;5039977;28;20196;-93
2022/02/22 02:31:57;;;;;;;35.50;7.47;;;4.90;82.90;;;;;;5040173;28;20560;-92
2022/02/22 02:34:25;;;;;;;43.67;6.80;;;4.80;83.10;;;;;;5040513;28;20314;-93
2022/02/22 02:36:51;;;;;;;31.53;6.83;;;4.80;82.80;;;;;;5040197;28;20179;-92
2022/02/22 02:39:16;;;;;;;42.70;7.67;;;4.80;82.90;;;;;;5039698;28;20201;-92
2022/02/22 02:41:44;;;;;;;32.63;7.00;;;4.80;83.10;;;;;;5039839;28;20240;-93
2022/02/22 02:44:11;;;;;;;37.03;5.83;;;4.70;83.30;;;;;;5040539;28;20174;-93
2022/02/22 02:46:38;;;;;;;26.03;5.83;;;4.70;82.70;;;;;;5040810;28;20181;-93
2022/02/22 02:49:05;;;;;;;33.30;6.07;;;4.70;82.50;;;;;;5041021;28;20197;-93
2022/02/22 02:51:31;;;;;;;33.73;6.50;;;4.80;81.70;;;;;;5039907;28;20184;-93
2022/02/22 02:53:58;;;;;;;22.87;5.27;;;4.80;81.90;;;;;;5039956;28;20238;-92
2022/02/22 02:56:24;;;;;;;38.83;6.73;;;4.80;81.70;;;;;;5039417;28;20298;-93
2022/02/22 02:58:58;;;;;;;40.53;6.20;;;4.80;81.70;;;;;;5039578;28;20193;-92
2022/02/22 03:01:25;;;;;;;23.30;5.23;;;4.80;82.10;;;;;;5039362;28;20213;-92
2022/02/22 03:03:51;;;;;;;34.50;7.23;;;4.80;82.40;;;;;;5039375;28;20165;-92
2022/02/22 03:06:18;;;;;;;30.90;5.23;;;5.00;81.90;;;;;;5039621;28;20718;-93
2022/02/22 03:08:44;;;;;;;39.90;7.70;;;5.00;82.30;;;;;;5040212;28;20668;-93
2022/02/22 03:11:10;;;;;;;41.03;6.77;;;4.90;82.80;;;;;;5039078;28;20187;-92
2022/02/22 03:13:36;;;;;;;41.67;9.87;;;5.00;83.00;;;;;;5039281;28;20648;-93
2022/02/22 03:16:02;;;;;;;28.23;6.47;;;4.90;83.20;;;;;;5039352;28;20217;-92
2022/02/22 03:18:27;;;;;;;23.27;5.57;;;4.90;83.40;;;;;;5039263;28;20290;-92
2022/02/22 03:20:53;;;;;;;39.80;7.87;;;5.00;83.30;;;;;;5038885;28;20177;-93
2022/02/22 03:23:21;;;;;;;46.47;7.40;;;5.00;83.40;;;;;;5039145;28;20182;-92
2022/02/22 03:25:49;;;;;;;42.33;9.03;;;5.00;83.00;;;;;;5039495;28;20184;-93
2022/02/22 03:28:16;;;;;;;45.03;8.43;;;5.00;83.60;;;;;;5039333;28;20268;-93
2022/02/22 03:30:41;;;;;;;41.20;7.37;;;5.00;83.50;;;;;;5039071;28;20196;-93
2022/02/22 03:33:08;;;;;;;36.73;6.70;;;4.90;83.70;;;;;;5039676;28;20567;-93
2022/02/22 03:35:34;;;;;;;37.80;7.30;;;4.90;83.50;;;;;;5040175;28;20201;-93
2022/02/22 03:38:10;;;;;;;38.97;7.03;;;5.00;83.80;;;;;;5060485;28;20195;-95
2022/02/22 03:40:36;;;;;;;38.47;8.17;;;4.90;84.20;;;;;;5058693;28;20217;-96
2022/02/22 03:43:03;;;;;;;43.67;7.33;;;4.90;84.40;;;;;;5060644;28;20196;-95
2022/02/22 03:45:31;;;;;;;54.17;8.63;;;4.90;84.00;;;;;;5062160;28;20204;-95
2022/02/22 03:48:02;;;;;;;43.87;8.27;;;5.00;83.00;;;;;;5062406;28;20242;-95
2022/02/22 03:50:28;;;;;;;50.30;8.30;;;4.90;83.50;;;;;;5063145;28;20192;-95
2022/02/22 03:52:53;;;;;;;47.60;8.20;;;4.90;83.80;;;;;;5062109;28;20183;-95
2022/02/22 03:55:19;;;;;;;33.50;7.10;;;4.90;83.90;;;;;;5062589;28;20233;-95
2022/02/22 03:57:45;;;;;;;46.20;9.00;;;4.90;83.50;;;;;;5061825;28;20187;-95
2022/02/22 04:00:23;;;;;;;30.73;6.93;;;5.00;82.40;;;;;;5061827;28;20182;-95
2022/02/22 04:02:49;;;;;;;30.60;5.73;;;4.80;82.40;;;;;;5062864;28;20179;-95
2022/02/22 04:05:20;;;;;;;30.90;6.20;;;4.80;82.10;;;;;;5080057;28;20223;-96
2022/02/22 04:07:46;;;;;;;23.90;5.17;;;4.90;81.90;;;;;;5063204;28;20221;-94
2022/02/22 04:10:13;;;;;;;32.07;6.03;;;4.90;81.80;;;;;;5062766;28;20212;-95
2022/02/22 04:12:41;;;;;;;26.10;5.37;;;4.90;81.60;;;;;;5062742;28;20171;-95
2022/02/22 04:15:10;;;;;;;46.10;6.83;;;4.90;81.80;;;;;;5063013;28;20200;-95
2022/02/22 04:17:47;;;;;;;32.60;6.20;;;4.80;82.20;;;;;;5061788;28;20232;-95
2022/02/22 04:20:18;;;;;;;50.03;7.40;;;4.90;81.70;;;;;;5062774;28;20169;-94
2022/02/22 04:22:44;;;;;;;31.33;6.40;;;4.90;81.70;;;;;;5062966;28;20157;-95
2022/02/22 04:25:10;;;;;;;27.57;6.43;;;5.00;81.10;;;;;;5053676;28;20241;-96
2022/02/22 04:27:36;;;;;;;31.83;5.80;;;5.10;80.70;;;;;;5062095;28;20191;-95
2022/02/22 04:30:03;;;;;;;30.57;6.30;;;5.00;81.00;;;;;;5062645;28;20167;-95
2022/02/22 04:32:29;;;;;;;38.43;7.13;;;5.10;80.20;;;;;;5061749;28;20169;-95
2022/02/22 04:34:54;;;;;;;29.97;5.40;;;5.10;79.90;;;;;;5062195;28;20198;-95
2022/02/22 04:37:23;;;;;;;30.60;5.50;;;5.10;80.00;;;;;;5059375;28;20234;-95
2022/02/22 04:39:52;;;;;;;38.00;6.97;;;5.10;80.40;;;;;;5057331;28;20197;-95
2022/02/22 04:42:19;;;;;;;44.43;7.03;;;5.10;80.60;;;;;;5060931;28;20165;-95
2022/02/22 04:44:45;;;;;;;35.40;5.73;;;5.10;81.20;;;;;;5061890;28;20167;-95
2022/02/22 04:47:11;;;;;;;31.70;6.63;;;5.10;81.30;;;;;;5062203;28;20165;-95
2022/02/22 04:49:37;;;;;;;30.10;6.10;;;5.10;81.60;;;;;;5062395;28;20164;-93
2022/02/22 04:52:11;;;;;;;38.53;6.03;;;5.00;82.30;;;;;;5062676;28;20165;-95
2022/02/22 04:54:43;;;;;;;33.47;6.37;;;4.90;83.10;;;;;;5062126;28;20182;-95
2022/02/22 04:57:08;;;;;;;33.00;6.67;;;4.80;83.40;;;;;;5061468;28;20171;-95
2022/02/22 04:59:34;;;;;;;30.47;5.83;;;4.80;83.60;;;;;;5061974;28;20201;-96
2022/02/22 05:02:03;;;;;;;33.50;5.87;;;4.80;83.90;;;;;;5061621;28;20214;-95
2022/02/22 05:04:28;;;;;;;28.07;5.40;;;4.70;84.50;;;;;;5061473;28;20181;-95
2022/02/22 05:06:56;;;;;;;33.70;7.17;;;4.60;85.00;;;;;;5060456;28;20176;-96
2022/02/22 05:09:24;;;;;;;40.17;6.83;;;4.60;85.30;;;;;;5060307;28;20177;-96
2022/02/22 05:11:49;;;;;;;32.37;6.50;;;4.60;85.70;;;;;;5061551;28;20178;-95
2022/02/22 05:14:15;;;;;;;35.27;6.00;;;4.60;85.90;;;;;;5061526;28;20197;-95
2022/02/22 05:16:41;;;;;;;26.60;5.27;;;4.60;85.60;;;;;;5061315;28;20225;-95
2022/02/22 05:19:10;;;;;;;20.70;5.00;;;4.60;85.30;;;;;;5060752;28;20285;-94
2022/02/22 05:21:38;;;;;;;21.53;5.93;;;4.50;85.30;;;;;;5060693;28;20247;-95
2022/02/22 05:24:06;;;;;;;23.97;6.50;;;4.40;86.00;;;;;;5060823;28;20158;-95
2022/02/22 05:26:36;;;;;;;31.60;8.37;;;4.40;86.40;;;;;;5061544;28;20158;-95
2022/02/22 05:29:07;;;;;;;28.67;6.27;;;4.30;86.50;;;;;;5061129;28;20200;-96
2022/02/22 05:31:37;;;;;;;35.43;7.80;;;4.30;86.80;;;;;;5058749;28;20605;-95
2022/02/22 05:34:02;;;;;;;43.03;7.60;;;4.30;86.90;;;;;;5060757;28;20196;-96
2022/02/22 05:36:28;;;;;;;50.23;7.60;;;4.30;86.90;;;;;;5061305;28;20201;-94
2022/02/22 05:38:54;;;;;;;40.13;7.00;;;4.50;86.30;;;;;;5061122;28;20696;-95
2022/02/22 05:41:20;;;;;;;41.90;9.10;;;4.60;85.60;;;;;;5077256;28;20207;-95
2022/02/22 05:43:46;;;;;;;36.83;6.43;;;4.60;84.90;;;;;;5050381;28;20196;-95
2022/02/22 05:46:12;;;;;;;41.93;7.70;;;4.80;83.90;;;;;;5053424;28;20190;-95
2022/02/22 05:48:48;;;;;;;40.93;7.57;;;4.70;83.30;;;;;;5055164;28;20203;-95
2022/02/22 05:51:15;;;;;;;44.97;8.07;;;4.80;82.70;;;;;;5059590;28;20157;-95
2022/02/22 05:53:41;;;;;;;41.40;7.07;;;4.70;82.30;;;;;;5059981;28;20175;-95
2022/02/22 05:56:06;;;;;;;33.20;5.93;;;4.70;82.10;;;;;;5060548;28;20221;-95
2022/02/22 05:58:33;;;;;;;29.43;6.10;;;4.80;81.70;;;;;;5060514;28;20191;-95
2022/02/22 06:00:58;;;;;;;26.50;5.87;;;4.80;80.90;;;;;;5060095;28;20170;-95
2022/02/22 06:03:24;;;;;;;31.27;6.20;;;4.80;80.70;;;;;;5057051;28;20249;-95
2022/02/22 06:05:50;;;;;;;30.83;5.47;;;4.90;79.60;;;;;;5057200;28;20181;-96
2022/02/22 06:08:15;;;;;;;38.40;6.10;;;4.80;79.90;;;;;;5055180;28;20199;-95
2022/02/22 06:10:41;;;;;;;36.00;6.70;;;4.80;79.80;;;;;;5053107;28;20181;-95
2022/02/22 06:13:07;;;;;;;24.07;5.00;;;4.80;79.70;;;;;;5072504;28;20182;-95
2022/02/22 06:15:32;;;;;;;30.53;5.93;;;4.80;79.50;;;;;;5042732;28;20297;-92
2022/02/22 06:17:58;;;;;;;31.93;6.23;;;4.90;79.10;;;;;;5035726;28;20261;-92
2022/02/22 06:20:23;;;;;;;22.87;4.63;;;4.80;79.40;;;;;;5039489;28;20185;-92
2022/02/22 06:22:49;;;;;;;34.37;6.30;;;4.90;78.60;;;;;;5036851;28;20204;-92
2022/02/22 06:25:15;;;;;;;18.33;4.93;;;4.90;79.20;;;;;;5038407;28;20243;-93
2022/02/22 06:27:51;;;;;;;28.90;5.07;;;4.90;78.10;;;;;;5035916;28;20206;-93
2022/02/22 06:30:19;;;;;;;39.23;5.93;;;4.90;78.40;;;;;;5035884;28;20189;-91
2022/02/22 06:32:46;;;;;;;12.93;4.57;;;4.90;78.80;;;;;;5035650;28;20658;-92
2022/02/22 06:35:11;;;;;;;40.30;6.30;;;5.00;77.70;;;;;;5036895;28;20216;-92
2022/02/22 06:37:37;;;;;;;43.70;5.80;;;4.90;78.30;;;;;;5036763;28;20196;-92
2022/02/22 06:40:07;;;;;;;28.90;5.37;;;4.90;77.70;;;;;;5036099;28;20220;-92
2022/02/22 06:42:34;;;;;;;29.57;5.57;;;4.90;78.30;;;;;;5035299;28;20180;-92
2022/02/22 06:45:00;;;;;;;23.60;5.23;;;4.80;78.90;;;;;;5035284;28;20559;-92
2022/02/22 06:47:25;;;;;;;34.90;5.70;;;4.80;79.00;;;;;;5035141;28;20204;-92
2022/02/22 06:49:51;;;;;;;29.60;5.40;;;4.80;79.00;;;;;;5035366;28;20259;-92
2022/02/22 06:52:18;;;;;;;30.90;5.83;;;4.80;79.10;;;;;;5035352;28;20173;-92
2022/02/22 06:54:45;;;;;;;23.63;4.47;;;4.70;79.70;;;;;;5035108;28;20673;-92
2022/02/22 06:57:11;;;;;;;30.20;6.03;;;4.80;78.90;;;;;;5052746;28;20180;-92
2022/02/22 06:59:36;;;;;;;24.47;5.33;;;4.80;79.40;;;;;;5035145;28;20173;-92
2022/02/22 07:02:02;;;;;;;44.87;5.93;;;4.70;79.80;;;;;;5037280;28;20170;-93
2022/02/22 07:04:28;;;;;;;18.37;4.90;;;4.80;80.20;;;;;;5037912;28;20175;-93
2022/02/22 07:06:53;;;;;;;38.20;7.27;;;4.80;79.50;;;;;;5036962;28;20272;-93
2022/02/22 07:09:19;;;;;;;30.57;5.90;;;4.80;79.70;;;;;;5037247;28;20200;-92
2022/02/22 07:11:44;;;;;;;40.47;5.37;;;4.90;79.60;;;;;;5035606;28;20229;-92
2022/02/22 07:14:10;;;;;;;35.07;6.20;;;4.90;79.80;;;;;;5036317;28;20181;-92
2022/02/22 07:16:36;;;;;;;28.07;5.27;;;4.90;79.80;;;;;;5038883;28;20617;-92
2022/02/22 07:19:02;;;;;;;34.93;6.40;;;4.90;80.10;;;;;;5038751;28;20200;-92
2022/02/22 07:21:28;;;;;;;32.47;6.60;;;5.00;79.40;;;;;;5038771;28;20209;-92
2022/02/22 07:23:54;;;;;;;29.90;5.77;;;5.00;79.40;;;;;;5038649;28;20177;-93
2022/02/22 07:26:20;;;;;;;36.30;6.87;;;5.00;79.70;;;;;;5038491;28;20186;-92
2022/02/22 07:28:46;;;;;;;26.93;5.23;;;5.00;79.60;;;;;;5038330;28;20228;-92
2022/02/22 07:31:11;;;;;;;31.50;6.27;;;5.00;79.70;;;;;;5038370;28;20203;-92
2022/02/22 07:33:38;;;;;;;36.87;8.23;;;5.00;80.20;;;;;;5038508;28;20663;-92
2022/02/22 07:36:05;;;;;;;36.23;6.00;;;4.90;80.50;;;;;;5038808;28;20197;-92
2022/02/22 07:38:30;;;;;;;33.13;6.23;;;5.00;80.20;;;;;;5039705;28;20196;-92
2022/02/22 07:40:56;;;;;;;34.93;8.70;;;5.00;80.30;;;;;;5038729;28;20176;-93
2022/02/22 07:43:22;;;;;;;33.73;5.57;;;5.00;80.40;;;;;;5039629;28;20198;-92
2022/02/22 07:45:48;;;;;;;34.20;5.97;;;5.00;80.40;;;;;;5039096;28;20180;-91
2022/02/22 07:48:14;;;;;;;22.33;4.97;;;5.00;79.90;;;;;;5038000;28;20255;-92
2022/02/22 07:50:39;;;;;;;32.53;7.30;;;5.00;80.20;;;;;;5038093;28;20231;-92
2022/02/22 07:53:05;;;;;;;35.20;7.40;;;5.00;80.50;;;;;;5038527;28;20178;-92
2022/02/22 07:55:31;;;;;;;32.20;5.90;;;5.00;80.20;;;;;;5038268;28;20685;-91
2022/02/22 07:57:56;;;;;;;32.37;5.93;;;5.00;80.10;;;;;;5055763;28;20220;-92
2022/02/22 08:00:22;;;;;;;24.33;4.50;;;5.00;80.80;;;;;;5038038;28;20172;-91
2022/02/22 08:02:48;;;;;;;31.27;5.63;;;5.00;79.90;;;;;;5038063;28;20176;-91
2022/02/22 08:05:13;;;;;;;30.03;7.43;;;5.00;80.20;;;;;;5037830;28;20173;-91
2022/02/22 08:07:39;;;;;;;35.53;6.83;;;5.00;80.20;;;;;;5037418;28;20228;-91
2022/02/22 08:10:06;;;;;;;29.00;5.70;;;5.00;80.80;;;;;;5037596;28;20193;-91
2022/02/22 08:12:32;;;;;;;36.37;7.40;;;5.00;80.50;;;;;;5055286;28;20222;-91
2022/02/22 08:14:57;;;;;;;30.20;6.53;;;5.10;79.70;;;;;;5037413;28;20234;-91
2022/02/22 08:17:23;;;;;;;37.90;7.40;;;5.10;78.80;;;;;;5037268;28;20641;-92
2022/02/22 08:19:49;;;;;;;39.63;5.73;;;5.10;79.50;;;;;;5055373;28;20643;-92
2022/02/22 08:22:14;;;;;;;30.83;5.60;;;5.10;79.50;;;;;;5037464;28;20185;-92
2022/02/22 08:24:40;;;;;;;37.40;5.67;;;5.20;79.30;;;;;;5055334;28;20177;-92
2022/02/22 08:27:05;;;;;;;26.83;5.83;;;5.30;78.60;;;;;;5036545;28;20237;-91
2022/02/22 08:29:31;;;;;;;35.60;6.23;;;5.30;77.80;;;;;;5038069;28;20181;-92
2022/02/22 08:31:58;;;;;;;30.40;6.87;;;5.30;78.80;;;;;;5037515;28;20652;-91
2022/02/22 08:34:23;;;;;;;43.07;7.60;;;5.40;78.70;;;;;;5037222;28;20188;-91
2022/02/22 08:36:49;;;;;;;33.80;5.47;;;5.50;78.10;;;;;;5055571;28;20210;-92
2022/02/22 08:39:15;;;;;;;31.83;6.43;;;5.50;78.40;;;;;;5037091;28;20198;-91
2022/02/22 08:41:40;;;;;;;31.40;5.97;;;5.60;77.90;;;;;;5036872;28;20215;-92
2022/02/22 08:44:06;;;;;;;25.70;5.60;;;5.60;78.20;;;;;;5037169;28;20211;-92
2022/02/22 08:46:32;;;;;;;32.37;5.97;;;5.60;77.20;;;;;;5036672;28;20177;-92
2022/02/22 08:48:59;;;;;;;39.13;6.40;;;5.60;76.70;;;;;;5036937;28;20214;-91
2022/02/22 08:51:24;;;;;;;23.60;4.93;;;5.60;76.70;;;;;;5037021;28;20641;-93
2022/02/22 08:53:50;;;;;;;33.70;6.23;;;5.70;77.50;;;;;;5036758;28;20190;-92
2022/02/22 08:56:15;;;;;;;26.40;5.60;;;5.70;76.80;;;;;;5036687;28;20667;-92
2022/02/22 08:58:41;;;;;;;33.97;6.60;;;5.80;77.80;;;;;;5036692;28;20201;-91
2022/02/22 09:01:07;;;;;;;30.80;5.67;;;5.80;78.20;;;;;;5036915;28;20532;-91
2022/02/22 09:03:33;;;;;;;22.57;5.40;;;5.70;77.80;;;;;;5036474;28;20179;-91
2022/02/22 09:06:01;;;;;;;34.70;5.90;;;5.80;79.10;;;;;;5036404;28;20179;-92
2022/02/22 09:08:28;;;;;;;32.20;5.63;;;5.80;79.00;;;;;;5036424;28;20202;-92
2022/02/22 09:10:54;;;;;;;34.07;7.30;;;5.90;78.80;;;;;;5036244;28;20190;-91
2022/02/22 09:13:20;;;;;;;31.00;6.10;;;5.90;79.20;;;;;;5036310;28;20602;-91
2022/02/22 09:15:46;;;;;;;35.97;6.60;;;6.00;79.10;;;;;;5036401;28;20239;-91
2022/02/22 09:18:12;;;;;;;34.27;6.83;;;6.00;79.10;;;;;;5054418;28;20234;-91
2022/02/22 09:20:38;;;;;;;33.53;6.17;;;6.00;78.80;;;;;;5054242;28;20179;-92
2022/02/22 09:23:04;;;;;;;24.27;5.67;;;6.10;78.80;;;;;;5036369;28;20182;-91
2022/02/22 09:25:35;;;;;;;33.53;5.90;;;6.00;77.00;;;;;;5054001;28;20238;-91
2022/02/22 09:28:10;;;;;;;29.87;6.47;;;6.00;78.30;;;;;;5041475;28;20183;-93
2022/02/22 09:30:36;;;;;;;23.20;4.80;;;6.10;78.30;;;;;;5058268;28;20201;-94
2022/02/22 09:33:19;;;;;;;29.73;5.83;;;6.20;77.60;;;;;;5057547;28;20253;-94
2022/02/22 09:35:46;;;;;;;38.77;6.77;;;6.30;77.10;;;;;;5048417;28;20226;-93
2022/02/22 09:38:12;;;;;;;36.67;5.57;;;6.30;77.30;;;;;;5041372;28;20191;-93
2022/02/22 09:40:38;;;;;;;29.87;5.83;;;6.30;77.30;;;;;;5038292;28;20198;-93
2022/02/22 09:43:03;;;;;;;41.43;5.97;;;6.30;77.10;;;;;;5037599;28;20645;-93
2022/02/22 09:45:29;;;;;;;36.03;6.67;;;6.40;77.30;;;;;;5036802;28;20180;-93
2022/02/22 09:47:57;;;;;;;36.47;5.73;;;6.50;77.80;;;;;;5038184;28;20285;-93
2022/02/22 09:50:23;;;;;;;29.40;6.13;;;6.40;76.30;;;;;;5036830;28;20657;-93
2022/02/22 09:52:48;;;;;;;37.37;7.73;;;6.40;76.80;;;;;;5036353;28;20274;-93
2022/02/22 09:55:14;;;;;;;32.47;5.77;;;6.40;77.10;;;;;;5036105;28;20199;-92
2022/02/22 09:57:40;;;;;;;36.73;5.47;;;6.40;76.30;;;;;;5037405;28;20273;-92
2022/02/22 10:00:27;;;;;;;35.40;6.17;;;6.30;75.90;;;;;;5035516;28;20333;-92
2022/02/22 10:02:55;;;;;;;28.67;6.20;;;6.30;74.90;;;;;;5038509;28;20713;-94
2022/02/22 10:05:26;;;;;;;23.93;5.90;;;6.40;76.00;;;;;;5045081;28;20176;-93
2022/02/22 10:08:13;;;;;;;43.30;6.23;;;6.30;77.70;;;;;;5058774;28;20206;-95
2022/02/22 10:10:42;;;;;;;28.07;6.30;;;6.30;78.80;;;;;;5058611;28;20183;-93
2022/02/22 10:13:19;;;;;;;28.10;6.57;;;6.30;79.50;;;;;;5059834;28;20187;-93
2022/02/22 10:15:45;;;;;;;31.20;5.53;;;6.30;79.60;;;;;;5060884;28;20196;-91
2022/02/22 10:18:15;;;;;;;35.03;6.83;;;6.40;80.20;;;;;;5059187;28;20223;-93
2022/02/22 10:20:42;;;;;;;27.43;6.07;;;6.40;80.20;;;;;;5174785;23;20266;-93
2022/02/22 10:23:09;;;;;;;31.90;8.17;;;6.40;80.10;;;;;;5055105;28;20175;-92
2022/02/22 10:25:36;;;;;;;36.67;5.73;;;6.50;80.30;;;;;;5056055;28;20183;-92
2022/02/22 10:28:04;;;;;;;22.17;5.40;;;6.50;79.90;;;;;;5061708;28;20691;-92
2022/02/22 10:30:39;;;;;;;32.67;7.33;;;6.60;79.80;;;;;;5079976;28;20167;-92
2022/02/22 10:33:11;;;;;;;32.90;6.93;;;6.60;80.60;;;;;;5068304;28;20190;-92
2022/02/22 10:35:37;;;;;;;37.57;7.43;;;6.50;80.00;;;;;;5056698;28;20259;-90
2022/02/22 10:38:26;;;;;;;45.13;6.47;;;6.50;80.20;;;;;;5059602;28;20203;-92
2022/02/22 10:41:18;;;;;;;37.30;6.47;;;6.50;81.00;;;;;;5059065;28;20263;-91
2022/02/22 10:43:57;;;;;;;33.33;5.87;;;6.50;81.20;;;;;;5071805;28;20179;-92
2022/02/22 10:46:28;;;;;;;24.27;4.93;;;6.50;80.90;;;;;;5069125;28;20277;-92
2022/02/22 10:49:09;;;;;;;26.50;5.33;;;6.60;81.70;;;;;;5067997;28;20675;-93
2022/02/22 10:51:49;;;;;;;42.53;6.87;;;6.60;80.50;;;;;;5067824;28;20229;-92
2022/02/22 10:54:17;;;;;;;36.97;7.13;;;6.60;80.90;;;;;;5065114;28;20183;-90
2022/02/22 10:56:43;;;;;;;30.63;4.73;;;6.70;81.50;;;;;;5059061;28;20231;-90
2022/02/22 10:59:09;;;;;;;35.10;6.83;;;6.60;79.20;;;;;;5062013;28;20244;-92
2022/02/22 11:04:21;;;;;;;37.17;6.47;;;6.70;80.00;;;;;;5078802;28;20191;-93
2022/02/22 11:06:47;;;;;;;29.60;6.20;;;6.70;80.70;;;;;;5082165;28;20179;-93
2022/02/22 11:09:22;;;;;;;39.33;6.90;;;6.60;80.50;;;;;;5080832;28;20267;-93
2022/02/22 11:12:15;;;;;;;32.43;7.33;;;6.70;81.30;;;;;;5075775;28;20179;-92
2022/02/22 11:14:40;;;;;;;37.83;7.93;;;6.70;81.10;;;;;;5060059;28;20180;-91
2022/02/22 11:17:24;;;;;;;32.13;5.87;;;6.70;81.10;;;;;;5058951;28;20171;-92
2022/02/22 11:19:54;;;;;;;28.60;5.53;;;6.70;80.60;;;;;;5063332;28;20191;-92
2022/02/22 11:22:28;;;;;;;33.93;7.20;;;6.70;80.80;;;;;;5064293;28;20168;-92
2022/02/22 11:24:58;;;;;;;28.37;6.13;;;6.80;81.70;;;;;;5090011;28;20152;-92
2022/02/22 11:27:42;;;;;;;36.17;7.00;;;6.80;81.70;;;;;;5071440;28;20219;-92
2022/02/22 11:30:13;;;;;;;32.60;6.43;;;6.70;79.60;;;;;;5066932;28;20644;-91
2022/02/22 11:32:53;;;;;;;37.87;6.97;;;6.80;80.50;;;;;;5060736;28;20175;-91
2022/02/22 11:35:19;;;;;;;20.40;4.60;;;6.80;80.00;;;;;;5058152;28;20195;-91
2022/02/22 11:37:48;;;;;;;37.40;7.57;;;6.70;79.00;;;;;;5058659;28;20195;-91
2022/02/22 11:40:30;;;;;;;43.53;6.73;;;6.80;79.90;;;;;;5076992;28;20175;-91
2022/02/22 11:43:19;;;;;;;27.60;6.30;;;6.80;80.40;;;;;;5058950;28;20184;-91
2022/02/22 11:45:50;;;;;;;22.17;6.10;;;6.80;80.50;;;;;;5065236;28;20180;-93
2022/02/22 11:48:32;;;;;;;43.57;7.83;;;6.80;80.40;;;;;;5073355;28;20211;-92
2022/02/22 11:50:59;;;;;;;30.30;6.97;;;6.80;80.60;;;;;;5070611;28;20176;-92
2022/02/22 11:53:30;;;;;;;30.97;6.40;;;6.80;79.60;;;;;;5078917;28;20163;-93
2022/02/22 11:55:59;;;;;;;41.50;8.23;;;6.80;79.20;;;;;;5077324;28;20234;-92
2022/02/22 11:58:27;;;;;;;32.87;6.00;;;6.90;79.50;;;;;;5077994;28;20223;-93
2022/02/22 12:00:56;;;;;;;31.17;6.37;;;7.00;79.90;;;;;;5078205;28;20199;-92
2022/02/22 12:03:24;;;;;;;29.47;5.77;;;7.10;79.90;;;;;;5071362;28;20172;-93
2022/02/22 12:05:58;;;;;;;24.47;5.17;;;6.90;78.30;;;;;;5068778;28;20659;-92
2022/02/22 12:08:33;;;;;;;29.60;5.80;;;7.00;78.20;;;;;;5062065;28;20245;-91
2022/02/22 12:11:01;;;;;;;33.27;6.93;;;6.90;78.80;;;;;;5062937;28;20175;-91
2022/02/22 12:13:42;;;;;;;34.37;5.43;;;6.90;78.00;;;;;;5066075;28;20160;-92
2022/02/22 12:16:15;;;;;;;24.67;5.73;;;6.90;78.60;;;;;;5067863;28;20207;-92
2022/02/22 12:18:45;;;;;;;26.50;5.53;;;6.90;78.30;;;;;;5060645;28;20195;-92
2022/02/22 12:21:12;;;;;;;26.43;5.77;;;6.90;78.50;;;;;;5060683;28;20226;-93
2022/02/22 12:23:39;;;;;;;26.27;6.23;;;6.90;79.30;;;;;;5064943;28;20176;-92
2022/02/22 12:26:07;;;;;;;23.50;6.10;;;6.90;79.30;;;;;;5064110;28;20285;-91
2022/02/22 12:28:44;;;;;;;29.03;5.50;;;6.80;77.70;;;;;;5078615;28;20202;-92
2022/02/22 12:31:09;;;;;;;26.40;5.87;;;6.90;77.80;;;;;;5060912;28;20175;-91
2022/02/22 12:33:35;;;;;;;24.10;5.17;;;6.90;78.60;;;;;;5061694;28;20183;-91
2022/02/22 12:36:15;;;;;;;27.70;5.03;;;7.00;78.60;;;;;;5077758;28;20210;-91
2022/02/22 12:38:41;;;;;;;15.37;4.63;;;7.00;78.30;;;;;;5060304;28;20221;-91
2022/02/22 12:41:14;;;;;;;24.17;5.50;;;7.00;78.60;;;;;;5060653;28;20243;-91
2022/02/22 12:43:48;;;;;;;20.80;5.57;;;6.90;78.70;;;;;;5061306;28;20175;-91
2022/02/22 12:46:15;;;;;;;27.43;5.30;;;6.90;78.00;;;;;;5062389;28;20186;-91
2022/02/22 12:48:41;;;;;;;30.30;6.33;;;6.90;78.00;;;;;;5078319;28;20262;-92
2022/02/22 12:51:07;;;;;;;15.77;4.37;;;7.00;78.80;;;;;;5079383;28;20178;-91
2022/02/22 12:53:32;;;;;;;21.20;4.60;;;6.90;78.20;;;;;;5081368;28;20182;-92